Welcome to Northern Hawkes Bay. New Zealand.
PWS Header
      nz Flag



Hit Counter


W3C Valid W3C Valid logo


    Wairoa

Select any of the Stations below to visit their websites.










Historic Data from Weather Underground
Select the location of interest below. Wairoa is the default. Please have patience, this Data is slow to load in.
Northern Hawkes Bay Historical Data
Daily Summary for July 21, 2017 Units:  English    Metric   Both
« Previous Day
Next Day »
Daily Weekly Monthly Yearly Custom
  High: Low: Average:
Temperature: 64.9 °F 49.8 °F 57.4 °F
Dew Point: 55.8 °F 41.4 °F 45.3 °F
Humidity: 82% 47% 65%
Wind Speed: 17.4mph 0mph 6mph
Wind Gust: 31.1mph - -
Wind- - SW
Pressure: 29.2 in 28.9 in -
Precipitation: 0.04 in    
Historical Graphs
 
 
Tabular Data for July 21, 2017
Time Temperature Dew Point Pressure Wind Wind Speed Wind Gust Humidity Rainfall Rate (Hourly) solar
00:01 61.9 °F 55.2 °F 28.9 in North 3.8 mph 6 mph 79% 0 in 0 W/m2
00:06 61.5 °F 55 °F 28.9 in NNE 3.8 mph 12.1 mph 79% 0 in 0 W/m2
00:11 62.1 °F 55.8 °F 29 in North 11.4 mph 22.1 mph 80% 0 in 0 W/m2
00:30 60.4 °F 54.3 °F 28.9 in NNW 6 mph 16.8 mph 80% 0.04 in 0 W/m2
00:35 59.9 °F 54.1 °F 28.9 in NNW 4.5 mph 16.8 mph 81% 0.04 in 0 W/m2
00:40 59.5 °F 54.1 °F 28.9 in North 8.3 mph 10.7 mph 82% 0.04 in 0 W/m2
00:45 59.5 °F 53.4 °F 28.9 in North 5.4 mph 13 mph 80% 0.04 in 0 W/m2
00:50 59.2 °F 52.7 °F 28.9 in North 5.4 mph 13 mph 79% 0.04 in 0 W/m2
00:55 59 °F 52.5 °F 28.9 in North 3.8 mph 10.7 mph 79% 0.04 in 0 W/m2
01:00 58.8 °F 53.1 °F 28.9 in North 3.8 mph 8.3 mph 81% 0.04 in 0 W/m2
01:05 58.6 °F 53.2 °F 29 in North 6 mph 8.3 mph 82% 0.04 in 0 W/m2
01:10 59.2 °F 52.3 °F 29 in North 3.8 mph 9.2 mph 78% 0.04 in 0 W/m2
01:15 59.7 °F 51.4 °F 29 in NNE 6.9 mph 13.6 mph 74% 0 in 0 W/m2
01:20 59.9 °F 50.5 °F 29 in NNE 7.6 mph 14.5 mph 71% 0 in 0 W/m2
01:25 60.1 °F 49.8 °F 29 in NE 9.8 mph 15.9 mph 69% 0 in 0 W/m2
01:30 60.1 °F 49.8 °F 29 in NNE 6 mph 15.9 mph 69% 0 in 0 W/m2
01:35 59.9 °F 50.2 °F 29 in NNE 5.4 mph 15.9 mph 70% 0 in 0 W/m2
01:40 59.7 °F 50.4 °F 29 in NNE 3.8 mph 13.6 mph 71% 0 in 0 W/m2
01:45 59.2 °F 50.2 °F 29 in NE 4.5 mph 13 mph 72% 0 in 0 W/m2
01:50 59 °F 50.4 °F 29 in NE 2.2 mph 14.5 mph 73% 0 in 0 W/m2
01:55 58.8 °F 50.5 °F 29 in NNE 8.3 mph 14.5 mph 74% 0 in 0 W/m2
02:00 58.8 °F 50.5 °F 29 in NNE 7.6 mph 13.6 mph 74% 0 in 0 W/m2
02:05 58.8 °F 50.5 °F 29 in NNE 3.8 mph 12.1 mph 74% 0 in 0 W/m2
02:10 58.5 °F 50.2 °F 29 in NNE 5.4 mph 11.4 mph 74% 0 in 0 W/m2
02:15 58.3 °F 50 °F 29 in NE 4.5 mph 11.4 mph 74% 0 in 0 W/m2
02:20 58.3 °F 50 °F 29 in NNE 5.4 mph 16.8 mph 74% 0 in 0 W/m2
02:25 58.5 °F 49.8 °F 29 in NNE 6.9 mph 16.8 mph 73% 0 in 0 W/m2
02:30 58.5 °F 50.2 °F 29 in NNE 3.1 mph 11.4 mph 74% 0 in 0 W/m2
02:35 58.3 °F 50 °F 29 in NNE 6 mph 11.4 mph 74% 0 in 0 W/m2
02:40 58.1 °F 49.8 °F 29 in NNE 3.8 mph 11.4 mph 74% 0 in 0 W/m2
02:45 57.9 °F 50.2 °F 28.9 in NE 6 mph 9.8 mph 75% 0 in 0 W/m2
02:50 57.7 °F 49.8 °F 28.9 in NNE 5.4 mph 9.2 mph 75% 0 in 0 W/m2
02:55 57.7 °F 49.8 °F 28.9 in NNE 3.1 mph 9.2 mph 75% 0 in 0 W/m2
03:00 57.7 °F 49.5 °F 28.9 in NE 3.1 mph 8.3 mph 74% 0 in 0 W/m2
03:05 57.6 °F 49.3 °F 28.9 in NNE 5.4 mph 15.2 mph 74% 0 in 0 W/m2
03:10 57.7 °F 49.5 °F 28.9 in NNE 6.9 mph 15.2 mph 74% 0 in 0 W/m2
03:15 57.7 °F 49.5 °F 29 in NE 5.4 mph 10.7 mph 74% 0 in 0 W/m2
03:21 58.1 °F 49.8 °F 29 in NNE 6.9 mph 13.6 mph 74% 0 in 0 W/m2
03:26 58.3 °F 49.6 °F 28.9 in North 8.3 mph 13.6 mph 73% 0 in 0 W/m2
03:31 58.3 °F 49.3 °F 28.9 in North 6 mph 12.1 mph 72% 0 in 0 W/m2
03:36 58.5 °F 49.5 °F 28.9 in North 9.8 mph 16.8 mph 72% 0 in 0 W/m2
03:41 58.8 °F 49.5 °F 28.9 in North 9.2 mph 16.8 mph 71% 0 in 0 W/m2
03:46 58.8 °F 49.5 °F 28.9 in North 3.8 mph 15.9 mph 71% 0 in 0 W/m2
03:51 58.5 °F 49.1 °F 28.9 in NNE 6 mph 13.6 mph 71% 0 in 0 W/m2
03:56 58.3 °F 49.3 °F 28.9 in NNE 10.7 mph 13.6 mph 72% 0 in 0 W/m2
04:01 58.1 °F 49.1 °F 28.9 in North 5.4 mph 13.6 mph 72% 0 in 0 W/m2
04:06 58.1 °F 48.7 °F 28.9 in North 6 mph 14.5 mph 71% 0 in 0 W/m2
04:11 58.1 °F 48.7 °F 28.9 in North 7.6 mph 15.9 mph 71% 0 in 0 W/m2
04:16 58.6 °F 48.9 °F 28.9 in North 6 mph 15.9 mph 70% 0 in 0 W/m2
04:21 58.8 °F 49.1 °F 28.9 in NNE 5.4 mph 15.9 mph 70% 0 in 0 W/m2
04:26 58.8 °F 48.7 °F 28.9 in North 9.8 mph 15.2 mph 69% 0 in 0 W/m2
04:31 58.5 °F 48.4 °F 28.9 in North 6.9 mph 13.6 mph 69% 0 in 0 W/m2
04:36 58.5 °F 48.7 °F 28.9 in North 9.2 mph 13.6 mph 70% 0 in 0 W/m2
04:41 58.5 °F 48.4 °F 28.9 in North 7.6 mph 13.6 mph 69% 0 in 0 W/m2
04:46 58.3 °F 48.6 °F 28.9 in NNW 6.9 mph 13.6 mph 70% 0 in 0 W/m2
04:51 58.3 °F 47.8 °F 28.9 in North 9.8 mph 19 mph 68% 0 in 0 W/m2
04:56 58.5 °F 47.1 °F 28.9 in North 6 mph 19 mph 66% 0 in 0 W/m2
05:01 58.3 °F 46.9 °F 28.9 in North 6 mph 14.5 mph 66% 0 in 0 W/m2
05:06 58.8 °F 46.8 °F 28.9 in NNW 8.3 mph 26.6 mph 64% 0 in 0 W/m2
05:11 59 °F 46 °F 28.9 in NNW 6 mph 26.6 mph 62% 0 in 0 W/m2
05:16 58.6 °F 46.6 °F 28.9 in North 8.3 mph 19 mph 64% 0 in 0 W/m2
05:21 58.5 °F 46.8 °F 28.9 in North 6.9 mph 16.8 mph 65% 0 in 0 W/m2
05:26 58.5 °F 46.2 °F 29 in NNW 13 mph 24.4 mph 64% 0 in 0 W/m2
05:31 59.2 °F 45.9 °F 29 in NNW 15.9 mph 24.4 mph 61% 0 in 0 W/m2
05:36 59.4 °F 45.9 °F 28.9 in NNW 13 mph 24.4 mph 61% 0 in 0 W/m2
05:41 59.5 °F 45.7 °F 29 in NNW 8.3 mph 24.4 mph 60% 0 in 0 W/m2
05:46 59.4 °F 45.5 °F 29 in NNW 8.3 mph 22.1 mph 60% 0 in 0 W/m2
05:51 59.4 °F 45.5 °F 29 in North 9.2 mph 16.8 mph 60% 0 in 0 W/m2
05:56 59.4 °F 45.5 °F 29 in North 6.9 mph 16.8 mph 60% 0 in 0 W/m2
06:01 59 °F 45.7 °F 29 in NNW 3.8 mph 16.8 mph 61% 0 in 0 W/m2
06:06 58.3 °F 45.9 °F 29 in NW 3.1 mph 10.7 mph 63% 0 in 0 W/m2
06:11 57.7 °F 45.7 °F 29 in NW 2.2 mph 7.6 mph 64% 0 in 0 W/m2
06:16 57 °F 45.9 °F 29 in NNW 1.6 mph 9.2 mph 66% 0 in 0 W/m2
06:21 56.7 °F 45.9 °F 29 in NNW 6 mph 9.8 mph 67% 0 in 0 W/m2
06:26 58.3 °F 46.2 °F 29 in NNW 4.5 mph 13 mph 64% 0 in 0 W/m2
06:31 58.1 °F 46 °F 29 in North 2.2 mph 13 mph 64% 0 in 0 W/m2
06:36 57.2 °F 45.7 °F 29 in North 3.1 mph 8.3 mph 65% 0 in 0 W/m2
06:41 56.7 °F 45.9 °F 29 in North 3.8 mph 6.9 mph 67% 0 in 0 W/m2
06:46 57 °F 46.2 °F 29 in North 3.1 mph 8.3 mph 67% 0 in 0 W/m2
06:51 57.6 °F 46.2 °F 29 in NNE 1.6 mph 8.3 mph 66% 0 in 0 W/m2
06:56 57.6 °F 45.9 °F 29 in NNE 1.6 mph 5.4 mph 65% 0 in 0 W/m2
07:01 57.6 °F 46.2 °F 29 in Calm   5.4 mph 66% 0 in 0 W/m2
07:06 57.7 °F 46.6 °F 29 in NE 4.5 mph 5.4 mph 66% 0 in 0 W/m2
07:11 57.6 °F 46.2 °F 29 in NE 3.1 mph 6 mph 66% 0 in 0 W/m2
07:17 57.4 °F 46 °F 29 in NNE 5.4 mph 7.6 mph 66% 0 in 0 W/m2
07:22 57.7 °F 46.6 °F 29 in North 3.8 mph 11.4 mph 66% 0 in 0 W/m2
07:27 57.9 °F 46.9 °F 29 in North 6.9 mph 11.4 mph 67% 0 in 0 W/m2
07:32 58.3 °F 46.9 °F 29 in North 3.8 mph 11.4 mph 66% 0 in 0 W/m2
07:37 58.3 °F 46.9 °F 29 in North 5.4 mph 11.4 mph 66% 0 in 1 W/m2
07:42 58.3 °F 46.9 °F 29 in North 6.9 mph 10.7 mph 66% 0 in 4 W/m2
07:47 58.1 °F 46.8 °F 29 in North 3.8 mph 10.7 mph 66% 0 in 7 W/m2
07:52 57.9 °F 46.6 °F 29 in NNW 3.8 mph 10.7 mph 66% 0 in 9 W/m2
07:57 57.9 °F 46.9 °F 29.1 in North 3.8 mph 9.2 mph 67% 0 in 13 W/m2
08:02 57.9 °F 46.9 °F 29.1 in NNW 3.8 mph 7.6 mph 67% 0 in 23 W/m2
08:07 57.9 °F 46.6 °F 29.1 in NNW 3.8 mph 9.2 mph 66% 0 in 29 W/m2
08:12 57.9 °F 46.6 °F 29.1 in NNW 3.8 mph 9.2 mph 66% 0 in 34 W/m2
08:17 58.1 °F 46.4 °F 29.1 in NNW 9.8 mph 15.9 mph 65% 0 in 37 W/m2
08:22 58.8 °F 46.2 °F 29.1 in NNW 11.4 mph 22.8 mph 63% 0 in 42 W/m2
08:27 59 °F 45.1 °F 29.1 in NNW 9.2 mph 22.8 mph 60% 0 in 51 W/m2
08:32 59.2 °F 45 °F 29.1 in North 8.3 mph 19.7 mph 59% 0 in 55 W/m2
08:37 59.2 °F 44.4 °F 29.1 in NNW 10.7 mph 19.7 mph 58% 0 in 50 W/m2
08:42 59.2 °F 44.4 °F 29.1 in NW 10.7 mph 18.3 mph 58% 0 in 46 W/m2
08:47 59.2 °F 44.4 °F 29.1 in NW 13.6 mph 22.8 mph 58% 0 in 41 W/m2
08:52 59.2 °F 44.1 °F 29.1 in NW 9.2 mph 26.6 mph 57% 0 in 39 W/m2
08:57 59.2 °F 43.5 °F 29.1 in NNW 8.3 mph 26.6 mph 56% 0 in 36 W/m2
09:02 59.2 °F 43.5 °F 29.1 in NNW 9.8 mph 22.1 mph 56% 0 in 40 W/m2
09:07 59 °F 43.9 °F 29.1 in NNW 8.3 mph 21.3 mph 57% 0 in 55 W/m2
09:12 59 °F 44.2 °F 29.1 in NNW 6 mph 19 mph 58% 0 in 57 W/m2
09:17 58.8 °F 45 °F 29.1 in NNW 3.8 mph 14.5 mph 60% 0 in 69 W/m2
09:23 58.8 °F 45.9 °F 29.1 in North 5.4 mph 11.4 mph 62% 0 in 80 W/m2
09:28 59 °F 44.8 °F 29.1 in NNE 6.9 mph 16.8 mph 59% 0 in 88 W/m2
09:33 59 °F 44.8 °F 29.1 in NNE 6.9 mph 16.8 mph 59% 0 in 91 W/m2
09:38 59.2 °F 44.4 °F 29.1 in North 3.8 mph 18.3 mph 58% 0 in 101 W/m2
09:43 59.2 °F 45 °F 29.1 in North 6.9 mph 18.3 mph 59% 0 in 77 W/m2
09:48 59.2 °F 44.1 °F 29.1 in NNW 9.8 mph 15.2 mph 57% 0 in 95 W/m2
09:53 59.4 °F 44.6 °F 29.1 in NNW 6 mph 15.2 mph 58% 0 in 93 W/m2
09:58 59.4 °F 44.6 °F 29.1 in NNW 4.5 mph 13 mph 58% 0 in 66 W/m2
10:03 59.4 °F 44.1 °F 29.1 in North 3.1 mph 11.4 mph 57% 0 in 54 W/m2
10:08 59.2 °F 44.4 °F 29.1 in NNW 6 mph 10.7 mph 58% 0 in 75 W/m2
10:13 59.2 °F 45 °F 29.1 in NNW 6.9 mph 9.2 mph 59% 0 in 76 W/m2
10:18 59.4 °F 45 °F 29.1 in NNW 6 mph 9.2 mph 59% 0 in 106 W/m2
10:23 59.5 °F 44.2 °F 29.1 in NNW 6 mph 11.4 mph 57% 0 in 83 W/m2
10:28 59.5 °F 44.2 °F 29.1 in NNW 3.8 mph 11.4 mph 57% 0 in 103 W/m2
10:33 59.9 °F 44.2 °F 29.1 in NNW 6.9 mph 11.4 mph 56% 0 in 162 W/m2
10:38 60.4 °F 44.8 °F 29.1 in NNW 9.2 mph 14.5 mph 56% 0 in 149 W/m2
10:43 60.6 °F 43.9 °F 29.1 in NNW 14.5 mph 18.3 mph 54% 0 in 159 W/m2
10:48 61.3 °F 44.6 °F 29.1 in North 11.4 mph 22.1 mph 54% 0 in 174 W/m2
10:53 61.7 °F 44.4 °F 29.2 in North 6 mph 23.5 mph 53% 0 in 135 W/m2
10:58 61.5 °F 44.2 °F 29.1 in North 10.7 mph 23.5 mph 53% 0 in 175 W/m2
11:03 61.3 °F 44.1 °F 29.2 in North 3.8 mph 17.4 mph 53% 0 in 143 W/m2
11:08 60.8 °F 44.1 °F 29.1 in NNW 9.2 mph 15.2 mph 54% 0 in 129 W/m2
11:13 60.8 °F 44.4 °F 29.1 in NW 5.4 mph 14.5 mph 55% 0 in 180 W/m2
11:18 61.2 °F 44.4 °F 29.1 in NNW 5.4 mph 14.5 mph 54% 0 in 203 W/m2
11:23 61.9 °F 44.1 °F 29.1 in NNW 6.9 mph 15.2 mph 52% 0 in 166 W/m2
11:28 61.3 °F 44.1 °F 29.1 in NW 4.5 mph 15.2 mph 53% 0 in 139 W/m2
11:33 61.2 °F 43.3 °F 29.1 in NW 7.6 mph 17.4 mph 52% 0 in 142 W/m2
11:38 61.2 °F 43.9 °F 29.1 in NNW 10.7 mph 17.4 mph 53% 0 in 205 W/m2
11:43 62.1 °F 44.2 °F 29.1 in NNW 9.2 mph 18.3 mph 52% 0 in 151 W/m2
11:48 63.1 °F 44.8 °F 29.1 in North 13 mph 18.3 mph 51% 0 in 134 W/m2
11:53 63.3 °F 45 °F 29.1 in North 9.2 mph 18.3 mph 51% 0 in 160 W/m2
12:10 63 °F 44.6 °F 29.1 in NNW 10.7 mph 17.4 mph 51% 0 in 130 W/m2
12:15 63 °F 44.6 °F 29.1 in NNW 9.2 mph 23.5 mph 51% 0 in 95 W/m2
12:20 63.7 °F 44.8 °F 29.1 in NNW 8.3 mph 23.5 mph 50% 0 in 93 W/m2
12:25 63.5 °F 43.5 °F 29.1 in NNW 11.4 mph 24.4 mph 48% 0 in 94 W/m2
12:30 64 °F 44.4 °F 29.1 in NNW 6.9 mph 24.4 mph 49% 0 in 132 W/m2
12:35 64.4 °F 44.2 °F 29.1 in North 9.2 mph 18.3 mph 48% 0 in 125 W/m2
12:40 64.4 °F 43.7 °F 29.1 in NNW 8.3 mph 22.1 mph 47% 0 in 112 W/m2
12:45 64.9 °F 44.2 °F 29.1 in NNW 10.7 mph 22.1 mph 47% 0 in 103 W/m2
12:50 64 °F 44.1 °F 29.1 in NNW 12.1 mph 20.6 mph 48% 0 in 165 W/m2
12:55 63.7 °F 44.2 °F 29.1 in NNW 12.1 mph 20.6 mph 49% 0 in 190 W/m2
13:00 63.3 °F 43.9 °F 29.1 in NNW 8.3 mph 19 mph 49% 0 in 171 W/m2
13:05 63.9 °F 45 °F 29.1 in NNW 15.9 mph 21.3 mph 50% 0 in 164 W/m2
13:10 63.5 °F 44.1 °F 29.1 in NNW 9.8 mph 22.1 mph 49% 0 in 192 W/m2
13:15 63.5 °F 43.5 °F 29.1 in NNW 10.7 mph 22.1 mph 48% 0 in 115 W/m2
13:20 62.1 °F 44.2 °F 29.1 in NNW 11.4 mph 20.6 mph 52% 0 in 162 W/m2
13:25 62.8 °F 43.3 °F 29.1 in North 7.6 mph 19 mph 49% 0 in 96 W/m2
13:30 62.4 °F 42.4 °F 29.1 in North 15.2 mph 28.9 mph 48% 0 in 80 W/m2
13:35 61.9 °F 43.2 °F 29.1 in North 10.7 mph 28.9 mph 50% 0 in 62 W/m2
13:40 60.3 °F 42.1 °F 29.1 in North 10.7 mph 24.4 mph 51% 0 in 53 W/m2
13:46 59.7 °F 42.6 °F 29.1 in North 11.4 mph 20.6 mph 53% 0 in 96 W/m2
13:51 61.2 °F 43 °F 29.1 in North 12.1 mph 20.6 mph 51% 0 in 107 W/m2
13:56 61.3 °F 41.5 °F 29.1 in North 14.5 mph 20.6 mph 48% 0 in 84 W/m2
14:01 61.5 °F 41.7 °F 29.1 in North 11.4 mph 19.7 mph 48% 0 in 73 W/m2
14:06 61.7 °F 41.4 °F 29.1 in NNW 9.8 mph 19.7 mph 47% 0 in 70 W/m2
14:11 61.7 °F 41.7 °F 29.1 in NNW 11.4 mph 19.7 mph 48% 0 in 72 W/m2
14:16 61.3 °F 41.5 °F 29.1 in NNW 9.8 mph 20.6 mph 48% 0 in 107 W/m2
14:21 61.3 °F 42.1 °F 29.1 in NNW 8.3 mph 22.1 mph 49% 0 in 147 W/m2
14:26 61.5 °F 42.3 °F 29.1 in NNW 10.7 mph 22.1 mph 49% 0 in 197 W/m2
14:31 60.8 °F 41.5 °F 29.1 in NNW 15.2 mph 24.4 mph 49% 0 in 61 W/m2
14:36 59.5 °F 41.9 °F 29.1 in NNW 11.4 mph 24.4 mph 52% 0 in 49 W/m2
14:41 59 °F 41.9 °F 29.1 in NW 17.4 mph 22.8 mph 53% 0 in 60 W/m2
14:46 59 °F 41.9 °F 29.1 in NNW 13.6 mph 31.1 mph 53% 0 in 72 W/m2
14:51 59.2 °F 42.1 °F 29.1 in NNW 10.7 mph 31.1 mph 53% 0 in 91 W/m2
14:56 59.2 °F 42.1 °F 29.1 in NNW 13.6 mph 25.1 mph 53% 0 in 92 W/m2
15:01 59 °F 41.9 °F 29.1 in NNW 9.2 mph 28.2 mph 53% 0 in 82 W/m2
15:06 59 °F 42.4 °F 29.1 in North 14.5 mph 28.2 mph 54% 0 in 71 W/m2
15:11 58.6 °F 43.5 °F 29.1 in NNW 11.4 mph 27.3 mph 57% 0 in 81 W/m2
15:16 57.9 °F 43.7 °F 29.1 in NNW 8.3 mph 27.3 mph 59% 0 in 84 W/m2
15:21 57.7 °F 45.1 °F 29.1 in NNW 9.2 mph 22.1 mph 63% 0 in 175 W/m2
15:26 58.8 °F 45.9 °F 29.1 in NNW 9.2 mph 22.8 mph 62% 0 in 173 W/m2
15:31 59 °F 45.7 °F 29.1 in NNW 11.4 mph 23.5 mph 61% 0 in 179 W/m2
15:36 59.5 °F 46 °F 29.1 in NNW 8.3 mph 23.5 mph 61% 0 in 184 W/m2
15:41 59.7 °F 45.9 °F 29.1 in NNW 11.4 mph 17.4 mph 60% 0 in 156 W/m2
15:46 58.6 °F 45.1 °F 29.1 in NNW 13 mph 20.6 mph 61% 0 in 82 W/m2
15:51 57.2 °F 45.1 °F 29.1 in NNW 8.3 mph 20.6 mph 64% 0 in 39 W/m2
15:56 56.3 °F 45.1 °F 29.1 in North 6 mph 20.6 mph 66% 0 in 31 W/m2
16:01 55.9 °F 45.1 °F 29.1 in NNW 4.5 mph 12.1 mph 67% 0 in 29 W/m2
16:06 55.6 °F 44.8 °F 29.1 in NW 3.8 mph 9.2 mph 67% 0 in 30 W/m2
16:11 55.9 °F 45.1 °F 29.1 in NW 3.1 mph 6.9 mph 67% 0 in 53 W/m2
16:16 57.7 °F 46 °F 29.1 in NNW 2.2 mph 6 mph 65% 0 in 50 W/m2
16:21 57.9 °F 45.9 °F 29.1 in NNW 2.2 mph 6 mph 64% 0 in 33 W/m2
16:26 56.7 °F 45.3 °F 29.1 in Calm   3.8 mph 66% 0 in 36 W/m2
16:31 56.3 °F 45.5 °F 29.1 in West 2.2 mph 5.4 mph 67% 0 in 35 W/m2
16:36 56.3 °F 45.5 °F 29.1 in NW 9.8 mph 14.5 mph 67% 0 in 33 W/m2
16:41 57.6 °F 45.5 °F 29.1 in NW 3.8 mph 14.5 mph 64% 0 in 28 W/m2
16:46 57 °F 45.3 °F 29.1 in NW 1.6 mph 14.5 mph 65% 0 in 19 W/m2
16:51 56.5 °F 44.4 °F 29.1 in NW 6 mph 13.6 mph 64% 0 in 15 W/m2
16:56 56.1 °F 45 °F 29.1 in Calm   13.6 mph 66% 0 in 11 W/m2
17:01 55.6 °F 44.8 °F 29.1 in Calm   7.6 mph 67% 0 in 5 W/m2
17:06 55 °F 44.8 °F 29.1 in WNW 0.7 mph 2.2 mph 68% 0 in 0 W/m2
17:11 54.5 °F 44.4 °F 29.1 in NNW 0.7 mph 2.2 mph 69% 0 in 0 W/m2
17:16 54 °F 44.4 °F 29.1 in Calm   2.2 mph 70% 0 in 0 W/m2
17:21 53.6 °F 44.4 °F 29.1 in NNW 1.6 mph 3.1 mph 71% 0 in 0 W/m2
17:26 53.2 °F 44.8 °F 29.1 in NW 0.7 mph 3.8 mph 73% 0 in 0 W/m2
17:31 52.9 °F 44.4 °F 29.1 in NW 2.2 mph 3.8 mph 73% 0 in 0 W/m2
17:36 52.7 °F 44.2 °F 29.1 in NW 1.6 mph 3.8 mph 73% 0 in 0 W/m2
17:41 52.3 °F 44.2 °F 29.1 in NNW 0.7 mph 3.8 mph 74% 0 in 0 W/m2
17:46 51.8 °F 43.9 °F 29.1 in North 0.7 mph 2.2 mph 74% 0 in 0 W/m2
17:51 51.8 °F 44.1 °F 29.1 in NNE 1.6 mph 4.5 mph 75% 0 in 0 W/m2
17:56 51.4 °F 44.1 °F 29.1 in NNE 2.2 mph 4.5 mph 76% 0 in 0 W/m2
18:01 51.3 °F 44.2 °F 29.1 in North 0.7 mph 4.5 mph 77% 0 in 0 W/m2
18:06 50.9 °F 44.1 °F 29.1 in North 0.7 mph 4.5 mph 77% 0 in 0 W/m2
18:11 50.9 °F 44.1 °F 29.1 in NNW 0.7 mph 3.1 mph 77% 0 in 0 W/m2
18:16 50.5 °F 43.5 °F 29.1 in Calm   2.2 mph 77% 0 in 0 W/m2
18:21 50.2 °F 43.3 °F 29.1 in Calm   1.6 mph 77% 0 in 0 W/m2
18:26 50 °F 43.3 °F 29.1 in NW 0.7 mph 1.6 mph 78% 0 in 0 W/m2
18:31 50 °F 43.9 °F 29.1 in NW 2.2 mph 3.1 mph 79% 0 in 0 W/m2
18:36 49.8 °F 43.9 °F 29.1 in NNW 2.2 mph 4.5 mph 80% 0 in 0 W/m2
18:41 50 °F 43.9 °F 29.1 in NNW 3.8 mph 5.4 mph 79% 0 in 0 W/m2
18:46 50 °F 43.3 °F 29.1 in NW 5.4 mph 7.6 mph 78% 0 in 0 W/m2
18:51 50.7 °F 43.3 °F 29.1 in NW 5.4 mph 8.3 mph 76% 0 in 0 W/m2
18:56 51.6 °F 43.3 °F 29.1 in NNW 5.4 mph 9.8 mph 73% 0 in 0 W/m2
19:01 52.5 °F 42.3 °F 29.1 in NNW 3.1 mph 9.8 mph 68% 0 in 0 W/m2
19:06 53.1 °F 42.1 °F 29.1 in North 4.5 mph 8.3 mph 66% 0 in 0 W/m2
19:11 53.4 °F 42.1 °F 29.1 in North 1.6 mph 8.3 mph 65% 0 in 0 W/m2
19:16 53.1 °F 41.5 °F 29.1 in NNE 1.6 mph 8.3 mph 65% 0 in 0 W/m2
19:21 52.7 °F 41.7 °F 29.1 in ENE 2.2 mph 4.5 mph 66% 0 in 0 W/m2
19:26 52.5 °F 41.9 °F 29.1 in ENE 0.7 mph 4.5 mph 67% 0 in 0 W/m2
19:31 52.5 °F 41.9 °F 29.1 in ENE 3.8 mph 5.4 mph 67% 0 in 0 W/m2
19:36 52.9 °F 42.3 °F 29.1 in ENE 0.7 mph 6.9 mph 67% 0 in 0 W/m2
19:41 52.7 °F 42.1 °F 29.1 in NE 1.6 mph 6.9 mph 67% 0 in 0 W/m2
19:46 52.7 °F 42.1 °F 29.1 in ENE 2.2 mph 5.4 mph 67% 0 in 0 W/m2
19:51 52.7 °F 42.1 °F 29.1 in ENE 1.6 mph 4.5 mph 67% 0 in 0 W/m2
19:56 52.3 °F 42.1 °F 29.1 in NE 0.7 mph 4.5 mph 68% 0 in 0 W/m2
20:01 52.3 °F 42.1 °F 29.1 in NE 4.5 mph 7.6 mph 68% 0 in 0 W/m2
20:06 53.2 °F 42.6 °F 29.1 in NE 3.1 mph 8.3 mph 67% 0 in 0 W/m2
20:11 53.4 °F 42.4 °F 29.1 in NE 4.5 mph 9.8 mph 66% 0 in 0 W/m2
20:16 53.2 °F 42.3 °F 29.1 in NE 4.5 mph 9.8 mph 66% 0 in 0 W/m2
20:21 53.2 °F 42.3 °F 29.1 in NE 3.8 mph 8.3 mph 66% 0 in 0 W/m2
20:26 53.4 °F 42.1 °F 29.1 in NNE 3.8 mph 10.7 mph 65% 0 in 0 W/m2
20:31 53.4 °F 42.1 °F 29.1 in NNE 3.8 mph 10.7 mph 65% 0 in 0 W/m2
20:36 53.2 °F 42.3 °F 29.1 in NE 3.8 mph 7.6 mph 66% 0 in 0 W/m2
20:41 52.9 °F 41.7 °F 29.1 in NE 3.1 mph 6.9 mph 66% 0 in 0 W/m2
20:46 52.7 °F 42.1 °F 29.1 in NE 1.6 mph 8.3 mph 67% 0 in 0 W/m2
20:51 52.9 °F 41.7 °F 29.1 in NNE 3.1 mph 8.3 mph 66% 0 in 0 W/m2
20:56 52.9 °F 41.7 °F 29.1 in NNE 2.2 mph 6 mph 66% 0 in 0 W/m2
21:01 53.1 °F 42.1 °F 29.1 in North 3.8 mph 7.6 mph 66% 0 in 0 W/m2
21:06 53.1 °F 41.5 °F 29.1 in North 5.4 mph 8.3 mph 65% 0 in 0 W/m2
21:11 53.1 °F 41.5 °F 29.1 in North 5.4 mph 10.7 mph 65% 0 in 0 W/m2
21:16 53.2 °F 41.7 °F 29.1 in NNW 5.4 mph 10.7 mph 65% 0 in 0 W/m2
21:21 53.2 °F 41.7 °F 29.1 in North 5.4 mph 9.8 mph 65% 0 in 0 W/m2
21:26 53.1 °F 41.5 °F 29.1 in North 3.8 mph 11.4 mph 65% 0 in 0 W/m2
21:31 52.9 °F 41.4 °F 29.1 in North 5.4 mph 11.4 mph 65% 0 in 0 W/m2
21:36 52.7 °F 41.4 °F 29.1 in NNW 3.8 mph 9.8 mph 65% 0 in 0 W/m2
21:41 52.5 °F 41.5 °F 29.1 in NNW 3.1 mph 9.2 mph 66% 0 in 0 W/m2
21:46 52.5 °F 41.5 °F 29.1 in NNW 5.4 mph 9.2 mph 66% 0 in 0 W/m2
21:51 52.7 °F 41.7 °F 29.1 in North 5.4 mph 10.7 mph 66% 0 in 0 W/m2
21:57 52.7 °F 41.7 °F 29.1 in North 6.9 mph 13 mph 66% 0 in 0 W/m2
22:02 52.7 °F 41.4 °F 29.1 in North 2.2 mph 13 mph 65% 0 in 0 W/m2
22:07 52.7 °F 41.7 °F 29.1 in North 2.2 mph 9.8 mph 66% 0 in 0 W/m2
22:12 52.3 °F 41.4 °F 29.1 in North 1.6 mph 9.2 mph 66% 0 in 0 W/m2
22:32 51.6 °F 41.7 °F 29.1 in North 1.6 mph 5.4 mph 69% 0 in 0 W/m2
22:37 51.4 °F 42.1 °F 29.1 in North 3.1 mph 5.4 mph 70% 0 in 0 W/m2
22:42 51.6 °F 42.3 °F 29.1 in North 3.1 mph 6 mph 70% 0 in 0 W/m2
22:47 51.6 °F 42.3 °F 29.1 in North 3.1 mph 6 mph 70% 0 in 0 W/m2
22:52 51.6 °F 41.7 °F 29.1 in North 1.6 mph 5.4 mph 69% 0 in 0 W/m2
22:57 52 °F 41.7 °F 29.1 in North 3.8 mph 9.2 mph 68% 0 in 0 W/m2
23:02 52 °F 41.7 °F 29.1 in North 3.1 mph 9.2 mph 68% 0 in 0 W/m2
23:07 51.6 °F 41.7 °F 29.1 in North 3.1 mph 7.6 mph 69% 0 in 0 W/m2
23:12 52 °F 41.7 °F 29.1 in NNW 3.8 mph 8.3 mph 68% 0 in 0 W/m2
23:17 52 °F 41.4 °F 29.1 in NNW 1.6 mph 8.3 mph 67% 0 in 0 W/m2
23:22 52 °F 41.4 °F 29.1 in NNW 6.9 mph 10.7 mph 67% 0 in 0 W/m2
23:27 52.7 °F 41.7 °F 29.1 in North 6 mph 11.4 mph 66% 0 in 0 W/m2
23:32 52.9 °F 41.7 °F 29.1 in North 3.1 mph 12.1 mph 66% 0 in 0 W/m2
23:37 53.1 °F 42.1 °F 29.1 in NNE 3.1 mph 12.1 mph 66% 0 in 0 W/m2
23:42 53.2 °F 41.7 °F 29.1 in North 5.4 mph 10.7 mph 65% 0 in 0 W/m2
23:47 53.2 °F 41.7 °F 29.1 in North 4.5 mph 10.7 mph 65% 0 in 0 W/m2
23:52 53.2 °F 41.7 °F 29.1 in North 1.6 mph 8.3 mph 65% 0 in 0 W/m2
23:57 53.4 °F 42.1 °F 29.1 in NNW 3.1 mph 9.8 mph 65% 0 in 0 W/m2
Northern Hawkes Bay. New Zealand Historic Data
Compliments of Weather Underground - 2.25 mb